Aeroporto :
LOGIN :

Iscrizione | Disclaimer

   EN    FR    IT 

 










Sommario :    VFR   VFR Marginale   IFR   IFR Intensivo   IFR Molto Intensivo
Visibilità : 
Base nubi : 
>= 8 km
>= 3000ft
5 / 8 km
1000 / 3000 ft
1500m / 5 km
500 / 1000 ft
800 / 1500m
200 / 500 ft
< 800m
< 200 ft
Simboli :   Temporali  Nebbia  Neve Forte  Precipitazioni Forti  Vento > 20 kt
SIGMETs :   Varie  Temporali  Ghiacco  Turbolenza  Onda orograficha  Ceneri Vulcaniche






- Altitudine del aeroporto : 16 ft
- Codice IATA : SDL


ESNN - Sundsvall-Härnösand

ULTIMO METAR :
  • 241050Z 29012KT CAVOK 03/M06 Q0999 R16/09//95

METARs OBSOLETI :
  • 241020Z 29013KT 250V310 CAVOK 02/M06 Q0999 R16/09//95
  • 240950Z 29010KT CAVOK 02/M05 Q0998 R16/09//95
  • 240920Z 30014KT CAVOK 02/M05 Q0998 R16/09//95
  • 240850Z 30010KT 230V330 CAVOK 02/M06 Q0998 R16/09//95
  • 240820Z 29011KT CAVOK 01/M05 Q0998 R16/09//95

TAF TAF ESNN
Valido dal 24 a 09 ore il 24 a 18 ore UTC


240830Z 2409/2418 30008KT CAVOK



MetMap, La meteo Aeronautica in un colpo d'occhio ! - Copyright ORBIFLY Dicembre 2007 - Disclaimer

ORBIFLY MET'MAP TEAM :

Programmazione e sviluppo : Alexandra Zaïnal
Concezione : Baudouin d'Aumeries
Aiuto per la programmazione : Marc-Olivier Méhu
Supporto tecnico e logistico : Manuel Goepfert
Aiuto per la traduzione : Arnaldo La Scala

Contatto : metmap@orbifly.com




FONTI E CREDITI :

   NOAA